Terminal Aerodrome Forecast
Issued by NWS Shreveport, LA

Home | Current Version | Previous Version | Text Only | Print | Product List | Glossary On
Versions: 1 2 3 4 5 6 7 8 9 10 11 12
085
FTUS44 KSHV 060546
TAFSHV
TAF
KSHV 060546Z 0606/0706 00000KT P6SM SKC
     FM060900 VRB03KT P6SM SCT080 BKN100
     FM061200 13005KT P6SM VCSH BKN060 OVC100
     FM062100 34004KT P6SM FEW250=

USA.gov is the U.S. government's official web portal to all federal, state and local government web resources and services.